sensor_id;sensor_type;location;lat;lon;timestamp;temperature;humidity
52397;DHT22;38322;53.108;6.308;2022-07-29T05:03:09;14.10;99.90
52397;DHT22;38322;53.108;6.308;2022-07-29T05:05:35;14.10;99.90
52397;DHT22;38322;53.108;6.308;2022-07-29T05:08:00;14.10;99.90
52397;DHT22;38322;53.108;6.308;2022-07-29T05:10:26;14.10;99.90
52397;DHT22;38322;53.108;6.308;2022-07-29T05:12:52;14.10;99.90
52397;DHT22;38322;53.108;6.308;2022-07-29T05:15:18;14.10;99.90
52397;DHT22;38322;53.108;6.308;2022-07-29T05:17:44;14.20;99.90
52397;DHT22;38322;53.108;6.308;2022-07-29T05:20:10;14.20;99.90
52397;DHT22;38322;53.108;6.308;2022-07-29T05:22:36;14.30;99.90
52397;DHT22;38322;53.108;6.308;2022-07-29T05:25:02;14.30;99.90
52397;DHT22;38322;53.108;6.308;2022-07-29T05:27:28;14.30;99.90
52397;DHT22;38322;53.108;6.308;2022-07-29T05:29:54;14.30;99.90
52397;DHT22;38322;53.108;6.308;2022-07-29T05:32:19;14.40;99.90
52397;DHT22;38322;53.108;6.308;2022-07-29T05:34:45;14.40;99.90
52397;DHT22;38322;53.108;6.308;2022-07-29T05:37:11;14.40;99.90
52397;DHT22;38322;53.108;6.308;2022-07-29T05:39:39;14.40;99.90
52397;DHT22;38322;53.108;6.308;2022-07-29T05:42:09;14.40;99.90
52397;DHT22;38322;53.108;6.308;2022-07-29T05:44:38;14.50;99.90
52397;DHT22;38322;53.108;6.308;2022-07-29T05:47:05;14.60;99.90
52397;DHT22;38322;53.108;6.308;2022-07-29T05:49:32;14.60;99.90
52397;DHT22;38322;53.108;6.308;2022-07-29T05:51:57;14.70;99.90
52397;DHT22;38322;53.108;6.308;2022-07-29T05:54:23;14.70;99.90
52397;DHT22;38322;53.108;6.308;2022-07-29T05:56:49;14.80;99.90
52397;DHT22;38322;53.108;6.308;2022-07-29T05:59:15;14.80;99.90
52397;DHT22;38322;53.108;6.308;2022-07-29T06:01:41;14.90;99.90
52397;DHT22;38322;53.108;6.308;2022-07-29T06:04:07;15.00;99.90
52397;DHT22;38322;53.108;6.308;2022-07-29T06:06:33;15.10;99.90
52397;DHT22;38322;53.108;6.308;2022-07-29T06:09:00;15.10;99.90
52397;DHT22;38322;53.108;6.308;2022-07-29T06:11:26;15.20;99.90
52397;DHT22;38322;53.108;6.308;2022-07-29T06:13:52;15.20;99.90
52397;DHT22;38322;53.108;6.308;2022-07-29T06:16:18;15.30;99.90
52397;DHT22;38322;53.108;6.308;2022-07-29T06:18:44;15.40;99.90
52397;DHT22;38322;53.108;6.308;2022-07-29T06:21:10;15.50;99.90
52397;DHT22;38322;53.108;6.308;2022-07-29T06:23:37;15.50;99.90
52397;DHT22;38322;53.108;6.308;2022-07-29T06:26:03;15.60;99.90
52397;DHT22;38322;53.108;6.308;2022-07-29T06:28:29;15.50;99.90
52397;DHT22;38322;53.108;6.308;2022-07-29T06:30:54;15.60;99.90
52397;DHT22;38322;53.108;6.308;2022-07-29T06:33:20;15.70;99.90
52397;DHT22;38322;53.108;6.308;2022-07-29T06:35:46;15.70;99.90
52397;DHT22;38322;53.108;6.308;2022-07-29T06:38:13;15.70;99.90
52397;DHT22;38322;53.108;6.308;2022-07-29T06:40:43;15.80;99.90
52397;DHT22;38322;53.108;6.308;2022-07-29T06:46:02;15.90;99.90
52397;DHT22;38322;53.108;6.308;2022-07-29T06:48:28;16.00;99.90
52397;DHT22;38322;53.108;6.308;2022-07-29T06:50:54;16.00;99.90
52397;DHT22;38322;53.108;6.308;2022-07-29T06:53:20;16.10;99.90
52397;DHT22;38322;53.108;6.308;2022-07-29T06:55:46;16.20;99.90
52397;DHT22;38322;53.108;6.308;2022-07-29T06:58:11;16.20;99.90
52397;DHT22;38322;53.108;6.308;2022-07-29T07:00:39;16.10;99.90
52397;DHT22;38322;53.108;6.308;2022-07-29T07:03:05;16.10;99.90
52397;DHT22;38322;53.108;6.308;2022-07-29T07:05:31;16.10;99.90
52397;DHT22;38322;53.108;6.308;2022-07-29T07:07:57;16.10;99.90
52397;DHT22;38322;53.108;6.308;2022-07-29T07:10:23;16.00;99.90
52397;DHT22;38322;53.108;6.308;2022-07-29T07:12:48;16.10;99.90
52397;DHT22;38322;53.108;6.308;2022-07-29T07:15:14;16.10;99.90
52397;DHT22;38322;53.108;6.308;2022-07-29T07:17:40;16.10;99.90
52397;DHT22;38322;53.108;6.308;2022-07-29T07:20:06;16.10;99.90
52397;DHT22;38322;53.108;6.308;2022-07-29T07:22:32;16.10;99.90
52397;DHT22;38322;53.108;6.308;2022-07-29T07:24:58;16.10;99.90
52397;DHT22;38322;53.108;6.308;2022-07-29T07:27:23;16.10;99.90
52397;DHT22;38322;53.108;6.308;2022-07-29T07:29:49;16.10;99.90
52397;DHT22;38322;53.108;6.308;2022-07-29T07:32:15;16.10;99.90
52397;DHT22;38322;53.108;6.308;2022-07-29T07:34:42;16.10;99.90
52397;DHT22;38322;53.108;6.308;2022-07-29T07:37:08;16.20;99.90
52397;DHT22;38322;53.108;6.308;2022-07-29T07:39:35;16.20;99.90
52397;DHT22;38322;53.108;6.308;2022-07-29T07:42:01;16.20;99.90
52397;DHT22;38322;53.108;6.308;2022-07-29T07:44:26;16.20;99.90
52397;DHT22;38322;53.108;6.308;2022-07-29T07:46:52;16.20;99.90
52397;DHT22;38322;53.108;6.308;2022-07-29T07:49:18;16.30;99.90
52397;DHT22;38322;53.108;6.308;2022-07-29T07:51:44;16.30;99.90
52397;DHT22;38322;53.108;6.308;2022-07-29T07:54:10;16.30;99.90
52397;DHT22;38322;53.108;6.308;2022-07-29T07:56:36;16.30;99.90
52397;DHT22;38322;53.108;6.308;2022-07-29T07:59:02;16.30;99.90
52397;DHT22;38322;53.108;6.308;2022-07-29T08:01:28;16.40;99.90
52397;DHT22;38322;53.108;6.308;2022-07-29T08:03:53;16.40;99.90
52397;DHT22;38322;53.108;6.308;2022-07-29T08:06:19;16.40;99.90
52397;DHT22;38322;53.108;6.308;2022-07-29T08:08:45;16.40;99.90
52397;DHT22;38322;53.108;6.308;2022-07-29T08:11:11;16.50;99.90
52397;DHT22;38322;53.108;6.308;2022-07-29T08:13:37;16.40;99.90
52397;DHT22;38322;53.108;6.308;2022-07-29T08:16:03;16.50;99.90
52397;DHT22;38322;53.108;6.308;2022-07-29T08:18:40;16.50;99.90
52397;DHT22;38322;53.108;6.308;2022-07-29T08:21:06;16.50;99.90
52397;DHT22;38322;53.108;6.308;2022-07-29T08:23:32;16.50;99.90
52397;DHT22;38322;53.108;6.308;2022-07-29T08:26:08;16.50;99.90
52397;DHT22;38322;53.108;6.308;2022-07-29T08:28:36;16.50;99.90
52397;DHT22;38322;53.108;6.308;2022-07-29T08:31:02;16.50;99.90
52397;DHT22;38322;53.108;6.308;2022-07-29T08:33:28;16.50;99.90
52397;DHT22;38322;53.108;6.308;2022-07-29T08:35:54;16.50;99.90
52397;DHT22;38322;53.108;6.308;2022-07-29T08:38:20;16.50;99.90
52397;DHT22;38322;53.108;6.308;2022-07-29T08:40:46;16.50;99.90
52397;DHT22;38322;53.108;6.308;2022-07-29T08:43:11;16.60;99.90
52397;DHT22;38322;53.108;6.308;2022-07-29T08:45:44;16.60;99.90
52397;DHT22;38322;53.108;6.308;2022-07-29T08:48:15;16.70;99.90
52397;DHT22;38322;53.108;6.308;2022-07-29T08:50:42;16.70;99.90
52397;DHT22;38322;53.108;6.308;2022-07-29T08:53:13;16.70;99.90
52397;DHT22;38322;53.108;6.308;2022-07-29T08:55:41;16.70;99.90
52397;DHT22;38322;53.108;6.308;2022-07-29T08:58:09;16.70;99.90
52397;DHT22;38322;53.108;6.308;2022-07-29T09:00:41;16.70;99.90
52397;DHT22;38322;53.108;6.308;2022-07-29T09:03:08;16.80;99.90
52397;DHT22;38322;53.108;6.308;2022-07-29T09:05:35;16.90;99.90
52397;DHT22;38322;53.108;6.308;2022-07-29T09:08:01;16.90;99.90
52397;DHT22;38322;53.108;6.308;2022-07-29T09:10:27;17.00;99.90
52397;DHT22;38322;53.108;6.308;2022-07-29T09:12:54;17.10;99.90
52397;DHT22;38322;53.108;6.308;2022-07-29T09:15:21;17.20;99.90
52397;DHT22;38322;53.108;6.308;2022-07-29T09:17:48;17.20;99.90
52397;DHT22;38322;53.108;6.308;2022-07-29T09:20:20;17.30;99.90
52397;DHT22;38322;53.108;6.308;2022-07-29T09:22:47;17.30;99.90
52397;DHT22;38322;53.108;6.308;2022-07-29T09:25:31;17.30;99.90
52397;DHT22;38322;53.108;6.308;2022-07-29T09:28:09;17.40;99.90
52397;DHT22;38322;53.108;6.308;2022-07-29T09:30:39;17.50;99.90
52397;DHT22;38322;53.108;6.308;2022-07-29T09:33:15;17.60;99.90
52397;DHT22;38322;53.108;6.308;2022-07-29T09:35:40;17.70;99.90
52397;DHT22;38322;53.108;6.308;2022-07-29T09:38:13;17.80;99.90
52397;DHT22;38322;53.108;6.308;2022-07-29T09:40:39;17.80;99.90
52397;DHT22;38322;53.108;6.308;2022-07-29T09:43:12;17.80;99.90
52397;DHT22;38322;53.108;6.308;2022-07-29T09:45:39;17.90;99.90
52397;DHT22;38322;53.108;6.308;2022-07-29T09:48:22;17.90;99.90
52397;DHT22;38322;53.108;6.308;2022-07-29T09:50:48;18.00;99.90
52397;DHT22;38322;53.108;6.308;2022-07-29T09:53:37;18.00;99.90
52397;DHT22;38322;53.108;6.308;2022-07-29T09:56:04;18.00;99.90
52397;DHT22;38322;53.108;6.308;2022-07-29T09:58:30;18.10;99.90
52397;DHT22;38322;53.108;6.308;2022-07-29T10:00:56;18.20;99.90
52397;DHT22;38322;53.108;6.308;2022-07-29T10:03:23;18.30;99.90
52397;DHT22;38322;53.108;6.308;2022-07-29T10:06:08;18.50;99.90
52397;DHT22;38322;53.108;6.308;2022-07-29T10:08:35;18.60;99.90
52397;DHT22;38322;53.108;6.308;2022-07-29T10:11:14;18.80;99.90
52397;DHT22;38322;53.108;6.308;2022-07-29T10:13:40;18.90;99.90
52397;DHT22;38322;53.108;6.308;2022-07-29T10:16:06;18.90;99.90
52397;DHT22;38322;53.108;6.308;2022-07-29T10:18:34;18.90;99.90
52397;DHT22;38322;53.108;6.308;2022-07-29T10:21:00;18.80;99.90
52397;DHT22;38322;53.108;6.308;2022-07-29T10:23:30;18.70;99.90
52397;DHT22;38322;53.108;6.308;2022-07-29T10:25:56;18.70;99.90
52397;DHT22;38322;53.108;6.308;2022-07-29T10:28:23;18.70;99.90
52397;DHT22;38322;53.108;6.308;2022-07-29T10:31:00;18.80;99.90
52397;DHT22;38322;53.108;6.308;2022-07-29T10:34:02;18.80;99.90
52397;DHT22;38322;53.108;6.308;2022-07-29T10:39:37;19.00;99.90
52397;DHT22;38322;53.108;6.308;2022-07-29T10:42:21;19.10;99.90
52397;DHT22;38322;53.108;6.308;2022-07-29T10:44:48;19.20;99.90
52397;DHT22;38322;53.108;6.308;2022-07-29T10:47:24;19.40;99.90
52397;DHT22;38322;53.108;6.308;2022-07-29T10:50:02;19.70;99.90
52397;DHT22;38322;53.108;6.308;2022-07-29T10:55:38;19.70;99.90
52397;DHT22;38322;53.108;6.308;2022-07-29T10:58:19;19.80;99.90
52397;DHT22;38322;53.108;6.308;2022-07-29T11:00:47;19.60;99.90
52397;DHT22;38322;53.108;6.308;2022-07-29T11:03:45;19.60;99.90
52397;DHT22;38322;53.108;6.308;2022-07-29T11:06:12;19.30;99.90
52397;DHT22;38322;53.108;6.308;2022-07-29T11:08:37;19.50;99.90
52397;DHT22;38322;53.108;6.308;2022-07-29T11:16:14;19.50;99.90
52397;DHT22;38322;53.108;6.308;2022-07-29T11:21:39;19.60;99.90
52397;DHT22;38322;53.108;6.308;2022-07-29T11:24:14;19.60;99.90
52397;DHT22;38322;53.108;6.308;2022-07-29T11:26:41;19.60;99.90
52397;DHT22;38322;53.108;6.308;2022-07-29T11:29:19;19.70;99.90
52397;DHT22;38322;53.108;6.308;2022-07-29T11:31:49;19.60;99.90
52397;DHT22;38322;53.108;6.308;2022-07-29T11:39:44;19.80;99.90
52397;DHT22;38322;53.108;6.308;2022-07-29T11:44:56;19.80;99.90
52397;DHT22;38322;53.108;6.308;2022-07-29T11:47:23;19.90;99.90
52397;DHT22;38322;53.108;6.308;2022-07-29T11:49:50;19.90;99.90
52397;DHT22;38322;53.108;6.308;2022-07-29T11:52:17;19.90;99.90
52397;DHT22;38322;53.108;6.308;2022-07-29T11:54:43;20.00;99.90
52397;DHT22;38322;53.108;6.308;2022-07-29T11:57:10;20.10;99.90
52397;DHT22;38322;53.108;6.308;2022-07-29T11:59:42;20.10;99.90
52397;DHT22;38322;53.108;6.308;2022-07-29T12:02:08;20.20;99.90
52397;DHT22;38322;53.108;6.308;2022-07-29T12:04:55;20.30;99.90
52397;DHT22;38322;53.108;6.308;2022-07-29T12:07:28;20.40;99.90
52397;DHT22;38322;53.108;6.308;2022-07-29T12:09:54;20.30;99.90
52397;DHT22;38322;53.108;6.308;2022-07-29T12:12:20;20.30;99.90
52397;DHT22;38322;53.108;6.308;2022-07-29T12:14:47;20.30;99.90
52397;DHT22;38322;53.108;6.308;2022-07-29T12:17:32;20.40;99.90
52397;DHT22;38322;53.108;6.308;2022-07-29T12:20:00;20.30;99.90
52397;DHT22;38322;53.108;6.308;2022-07-29T12:22:33;20.30;99.90
52397;DHT22;38322;53.108;6.308;2022-07-29T12:25:09;20.30;99.90
52397;DHT22;38322;53.108;6.308;2022-07-29T12:27:36;20.30;99.90
52397;DHT22;38322;53.108;6.308;2022-07-29T12:30:06;20.30;99.90
52397;DHT22;38322;53.108;6.308;2022-07-29T12:35:11;20.70;99.90
52397;DHT22;38322;53.108;6.308;2022-07-29T12:37:40;20.70;99.90
52397;DHT22;38322;53.108;6.308;2022-07-29T12:40:08;20.90;99.90
52397;DHT22;38322;53.108;6.308;2022-07-29T12:42:34;21.10;99.90
52397;DHT22;38322;53.108;6.308;2022-07-29T12:45:01;21.30;99.90
52397;DHT22;38322;53.108;6.308;2022-07-29T12:47:28;21.50;99.90
52397;DHT22;38322;53.108;6.308;2022-07-29T12:50:10;21.80;99.90
52397;DHT22;38322;53.108;6.308;2022-07-29T12:52:36;22.00;99.90
52397;DHT22;38322;53.108;6.308;2022-07-29T12:55:03;22.10;99.90
52397;DHT22;38322;53.108;6.308;2022-07-29T12:57:29;22.30;99.90
52397;DHT22;38322;53.108;6.308;2022-07-29T13:00:09;22.30;99.90
52397;DHT22;38322;53.108;6.308;2022-07-29T13:02:40;22.40;99.90
52397;DHT22;38322;53.108;6.308;2022-07-29T13:05:08;22.50;99.90
52397;DHT22;38322;53.108;6.308;2022-07-29T13:07:34;22.50;99.90
52397;DHT22;38322;53.108;6.308;2022-07-29T13:10:14;22.60;99.90
52397;DHT22;38322;53.108;6.308;2022-07-29T13:15:27;22.90;99.90
52397;DHT22;38322;53.108;6.308;2022-07-29T13:17:53;23.00;99.90
52397;DHT22;38322;53.108;6.308;2022-07-29T13:20:22;23.10;99.90
52397;DHT22;38322;53.108;6.308;2022-07-29T13:22:48;23.30;99.90
52397;DHT22;38322;53.108;6.308;2022-07-29T13:25:14;23.60;99.90
52397;DHT22;38322;53.108;6.308;2022-07-29T13:27:48;23.90;99.90
52397;DHT22;38322;53.108;6.308;2022-07-29T13:30:15;24.10;99.70
52397;DHT22;38322;53.108;6.308;2022-07-29T13:32:40;24.20;99.30
52397;DHT22;38322;53.108;6.308;2022-07-29T13:35:08;24.30;98.90
52397;DHT22;38322;53.108;6.308;2022-07-29T13:37:35;24.50;98.70
52397;DHT22;38322;53.108;6.308;2022-07-29T13:40:05;24.70;97.70
52397;DHT22;38322;53.108;6.308;2022-07-29T13:42:32;24.80;97.70
52397;DHT22;38322;53.108;6.308;2022-07-29T13:44:58;25.00;97.40
52397;DHT22;38322;53.108;6.308;2022-07-29T13:47:24;24.80;96.60
52397;DHT22;38322;53.108;6.308;2022-07-29T13:49:50;24.80;96.50
52397;DHT22;38322;53.108;6.308;2022-07-29T13:52:16;24.70;96.30
52397;DHT22;38322;53.108;6.308;2022-07-29T13:54:43;25.00;96.30
52397;DHT22;38322;53.108;6.308;2022-07-29T13:57:09;25.30;96.20
52397;DHT22;38322;53.108;6.308;2022-07-29T13:59:40;25.60;96.00
52397;DHT22;38322;53.108;6.308;2022-07-29T14:02:07;25.40;95.10
52397;DHT22;38322;53.108;6.308;2022-07-29T14:04:35;25.30;94.90
52397;DHT22;38322;53.108;6.308;2022-07-29T14:07:01;25.30;94.70
52397;DHT22;38322;53.108;6.308;2022-07-29T14:09:27;25.30;93.70
52397;DHT22;38322;53.108;6.308;2022-07-29T14:11:53;25.20;93.00
52397;DHT22;38322;53.108;6.308;2022-07-29T14:14:19;25.30;92.80
52397;DHT22;38322;53.108;6.308;2022-07-29T14:16:45;25.50;92.80
52397;DHT22;38322;53.108;6.308;2022-07-29T14:19:11;25.40;92.60
52397;DHT22;38322;53.108;6.308;2022-07-29T14:21:38;25.60;92.50
52397;DHT22;38322;53.108;6.308;2022-07-29T14:24:05;25.60;91.80
52397;DHT22;38322;53.108;6.308;2022-07-29T14:26:31;25.60;91.70
52397;DHT22;38322;53.108;6.308;2022-07-29T14:28:57;25.50;91.40
52397;DHT22;38322;53.108;6.308;2022-07-29T14:31:23;25.60;91.70
52397;DHT22;38322;53.108;6.308;2022-07-29T14:33:51;25.90;91.80
52397;DHT22;38322;53.108;6.308;2022-07-29T14:36:17;26.10;91.80
52397;DHT22;38322;53.108;6.308;2022-07-29T14:38:42;26.30;91.50
52397;DHT22;38322;53.108;6.308;2022-07-29T14:41:08;26.50;91.40
52397;DHT22;38322;53.108;6.308;2022-07-29T14:43:35;26.40;90.40
52397;DHT22;38322;53.108;6.308;2022-07-29T14:46:01;26.50;89.50
52397;DHT22;38322;53.108;6.308;2022-07-29T14:48:27;26.40;88.70
52397;DHT22;38322;53.108;6.308;2022-07-29T14:50:53;26.40;90.00
52397;DHT22;38322;53.108;6.308;2022-07-29T14:53:20;26.20;88.70
52397;DHT22;38322;53.108;6.308;2022-07-29T14:55:45;26.20;88.90
52397;DHT22;38322;53.108;6.308;2022-07-29T14:58:11;26.20;89.20
52397;DHT22;38322;53.108;6.308;2022-07-29T15:00:37;26.10;88.90
52397;DHT22;38322;53.108;6.308;2022-07-29T15:03:03;25.90;89.20
52397;DHT22;38322;53.108;6.308;2022-07-29T15:05:30;25.60;89.70
52397;DHT22;38322;53.108;6.308;2022-07-29T15:07:57;25.70;90.00
52397;DHT22;38322;53.108;6.308;2022-07-29T15:10:22;25.80;90.00
52397;DHT22;38322;53.108;6.308;2022-07-29T15:12:54;26.00;89.20
52397;DHT22;38322;53.108;6.308;2022-07-29T15:15:20;26.00;89.40
52397;DHT22;38322;53.108;6.308;2022-07-29T15:17:47;26.00;88.00
52397;DHT22;38322;53.108;6.308;2022-07-29T15:20:13;26.10;88.40
52397;DHT22;38322;53.108;6.308;2022-07-29T15:22:39;26.30;88.00
52397;DHT22;38322;53.108;6.308;2022-07-29T15:25:11;26.70;87.10
52397;DHT22;38322;53.108;6.308;2022-07-29T15:27:36;26.90;88.00
52397;DHT22;38322;53.108;6.308;2022-07-29T15:30:03;27.30;87.90
52397;DHT22;38322;53.108;6.308;2022-07-29T15:32:29;27.30;87.20
52397;DHT22;38322;53.108;6.308;2022-07-29T15:34:54;27.50;86.40
52397;DHT22;38322;53.108;6.308;2022-07-29T15:37:20;27.50;85.60
52397;DHT22;38322;53.108;6.308;2022-07-29T15:39:46;27.60;86.00
52397;DHT22;38322;53.108;6.308;2022-07-29T15:42:12;27.40;84.70
52397;DHT22;38322;53.108;6.308;2022-07-29T15:44:37;27.00;84.30
52397;DHT22;38322;53.108;6.308;2022-07-29T15:47:03;26.60;84.50
52397;DHT22;38322;53.108;6.308;2022-07-29T15:49:33;26.40;85.10
52397;DHT22;38322;53.108;6.308;2022-07-29T15:52:01;26.50;86.40
52397;DHT22;38322;53.108;6.308;2022-07-29T15:54:28;26.70;86.20
52397;DHT22;38322;53.108;6.308;2022-07-29T15:56:54;27.00;85.50
52397;DHT22;38322;53.108;6.308;2022-07-29T15:59:21;27.20;85.30
52397;DHT22;38322;53.108;6.308;2022-07-29T16:01:47;27.20;84.50
52397;DHT22;38322;53.108;6.308;2022-07-29T16:04:12;27.10;83.70
52397;DHT22;38322;53.108;6.308;2022-07-29T16:06:38;27.00;84.10
52397;DHT22;38322;53.108;6.308;2022-07-29T16:09:04;27.20;84.10
52397;DHT22;38322;53.108;6.308;2022-07-29T16:11:30;27.10;84.40
52397;DHT22;38322;53.108;6.308;2022-07-29T16:13:59;26.90;83.60
52397;DHT22;38322;53.108;6.308;2022-07-29T16:16:28;26.60;83.30
52397;DHT22;38322;53.108;6.308;2022-07-29T16:18:53;26.60;84.40
52397;DHT22;38322;53.108;6.308;2022-07-29T16:21:20;26.50;83.60
52397;DHT22;38322;53.108;6.308;2022-07-29T16:23:47;26.40;83.40
52397;DHT22;38322;53.108;6.308;2022-07-29T16:26:13;26.60;83.30
52397;DHT22;38322;53.108;6.308;2022-07-29T16:28:39;26.90;83.00
52397;DHT22;38322;53.108;6.308;2022-07-29T16:31:07;27.10;83.70
52397;DHT22;38322;53.108;6.308;2022-07-29T16:33:33;27.20;81.70
52397;DHT22;38322;53.108;6.308;2022-07-29T16:35:59;27.40;81.40
52397;DHT22;38322;53.108;6.308;2022-07-29T16:38:25;27.60;81.00
52397;DHT22;38322;53.108;6.308;2022-07-29T16:40:51;27.70;80.10
52397;DHT22;38322;53.108;6.308;2022-07-29T16:43:17;27.60;79.50
52397;DHT22;38322;53.108;6.308;2022-07-29T16:45:43;27.60;79.50
52397;DHT22;38322;53.108;6.308;2022-07-29T16:48:09;27.60;79.20
52397;DHT22;38322;53.108;6.308;2022-07-29T16:50:36;27.70;79.30
52397;DHT22;38322;53.108;6.308;2022-07-29T16:53:02;28.00;78.80
52397;DHT22;38322;53.108;6.308;2022-07-29T16:55:28;28.00;78.50
52397;DHT22;38322;53.108;6.308;2022-07-29T16:57:54;28.00;77.80
52397;DHT22;38322;53.108;6.308;2022-07-29T17:00:22;28.10;77.90
52397;DHT22;38322;53.108;6.308;2022-07-29T17:02:48;28.10;78.00
52397;DHT22;38322;53.108;6.308;2022-07-29T17:05:14;28.10;78.10
52397;DHT22;38322;53.108;6.308;2022-07-29T17:07:40;28.30;77.60
52397;DHT22;38322;53.108;6.308;2022-07-29T17:10:08;28.60;77.50
52397;DHT22;38322;53.108;6.308;2022-07-29T17:12:35;28.30;77.20
52397;DHT22;38322;53.108;6.308;2022-07-29T17:15:05;28.00;77.50
52397;DHT22;38322;53.108;6.308;2022-07-29T17:17:31;27.40;77.60
52397;DHT22;38322;53.108;6.308;2022-07-29T17:19:57;27.50;77.50
52397;DHT22;38322;53.108;6.308;2022-07-29T17:22:22;27.60;77.50
52397;DHT22;38322;53.108;6.308;2022-07-29T17:24:48;27.60;77.40
52397;DHT22;38322;53.108;6.308;2022-07-29T17:27:14;27.40;77.80
52397;DHT22;38322;53.108;6.308;2022-07-29T17:29:40;27.60;78.20
52397;DHT22;38322;53.108;6.308;2022-07-29T17:32:08;27.90;76.90
52397;DHT22;38322;53.108;6.308;2022-07-29T17:34:35;27.70;76.70
52397;DHT22;38322;53.108;6.308;2022-07-29T17:37:02;27.60;77.10
52397;DHT22;38322;53.108;6.308;2022-07-29T17:39:28;27.20;77.50
52397;DHT22;38322;53.108;6.308;2022-07-29T17:41:53;26.70;78.70
52397;DHT22;38322;53.108;6.308;2022-07-29T17:44:19;26.50;79.50
52397;DHT22;38322;53.108;6.308;2022-07-29T17:46:45;25.90;80.30
52397;DHT22;38322;53.108;6.308;2022-07-29T17:49:11;25.50;80.40
52397;DHT22;38322;53.108;6.308;2022-07-29T17:51:37;25.20;80.80
52397;DHT22;38322;53.108;6.308;2022-07-29T17:54:03;24.50;81.40
52397;DHT22;38322;53.108;6.308;2022-07-29T17:56:29;24.40;81.90
52397;DHT22;38322;53.108;6.308;2022-07-29T17:58:55;24.10;83.80
52397;DHT22;38322;53.108;6.308;2022-07-29T18:01:23;24.00;83.70
52397;DHT22;38322;53.108;6.308;2022-07-29T18:03:49;23.90;83.60
52397;DHT22;38322;53.108;6.308;2022-07-29T18:06:17;23.80;83.60
52397;DHT22;38322;53.108;6.308;2022-07-29T18:08:43;23.70;83.90
52397;DHT22;38322;53.108;6.308;2022-07-29T18:11:12;23.60;84.10
52397;DHT22;38322;53.108;6.308;2022-07-29T18:13:39;23.40;84.80
52397;DHT22;38322;53.108;6.308;2022-07-29T18:16:06;23.30;85.50
52397;DHT22;38322;53.108;6.308;2022-07-29T18:18:35;23.20;85.90
52397;DHT22;38322;53.108;6.308;2022-07-29T18:21:01;23.20;86.30
52397;DHT22;38322;53.108;6.308;2022-07-29T18:23:27;23.10;86.50
52397;DHT22;38322;53.108;6.308;2022-07-29T18:25:53;23.00;86.90
52397;DHT22;38322;53.108;6.308;2022-07-29T18:28:18;23.00;87.50
52397;DHT22;38322;53.108;6.308;2022-07-29T18:30:45;22.90;88.20
52397;DHT22;38322;53.108;6.308;2022-07-29T18:33:11;22.80;89.00
52397;DHT22;38322;53.108;6.308;2022-07-29T18:35:42;22.60;89.80
52397;DHT22;38322;53.108;6.308;2022-07-29T18:38:10;22.50;90.30
52397;DHT22;38322;53.108;6.308;2022-07-29T18:40:36;22.40;90.60
52397;DHT22;38322;53.108;6.308;2022-07-29T18:43:05;22.40;90.80
52397;DHT22;38322;53.108;6.308;2022-07-29T18:45:31;22.30;91.00
52397;DHT22;38322;53.108;6.308;2022-07-29T18:47:57;22.20;91.30
52397;DHT22;38322;53.108;6.308;2022-07-29T18:50:23;22.20;91.50
52397;DHT22;38322;53.108;6.308;2022-07-29T18:52:50;22.10;91.60
52397;DHT22;38322;53.108;6.308;2022-07-29T18:55:16;22.00;91.80
52397;DHT22;38322;53.108;6.308;2022-07-29T18:57:42;22.00;92.30
52397;DHT22;38322;53.108;6.308;2022-07-29T19:00:09;21.90;92.20
52397;DHT22;38322;53.108;6.308;2022-07-29T19:02:37;21.80;92.30
52397;DHT22;38322;53.108;6.308;2022-07-29T19:05:08;21.80;92.50
52397;DHT22;38322;53.108;6.308;2022-07-29T19:07:34;21.70;92.80
52397;DHT22;38322;53.108;6.308;2022-07-29T19:10:00;21.70;92.90
52397;DHT22;38322;53.108;6.308;2022-07-29T19:12:26;21.60;93.10
52397;DHT22;38322;53.108;6.308;2022-07-29T19:14:52;21.50;93.40
52397;DHT22;38322;53.108;6.308;2022-07-29T19:17:18;21.40;93.50
52397;DHT22;38322;53.108;6.308;2022-07-29T19:19:47;21.40;93.70
52397;DHT22;38322;53.108;6.308;2022-07-29T19:22:14;21.30;93.90
52397;DHT22;38322;53.108;6.308;2022-07-29T19:24:40;21.20;94.20
52397;DHT22;38322;53.108;6.308;2022-07-29T19:27:06;21.20;94.40
52397;DHT22;38322;53.108;6.308;2022-07-29T19:29:32;21.10;94.90
52397;DHT22;38322;53.108;6.308;2022-07-29T19:32:00;21.00;94.80
52397;DHT22;38322;53.108;6.308;2022-07-29T19:34:27;20.90;95.10
52397;DHT22;38322;53.108;6.308;2022-07-29T19:36:56;20.90;95.20
52397;DHT22;38322;53.108;6.308;2022-07-29T19:39:22;20.90;95.50
52397;DHT22;38322;53.108;6.308;2022-07-29T19:41:47;20.80;95.60
52397;DHT22;38322;53.108;6.308;2022-07-29T19:44:13;20.70;95.80
52397;DHT22;38322;53.108;6.308;2022-07-29T19:46:41;20.70;96.00
52397;DHT22;38322;53.108;6.308;2022-07-29T19:49:07;20.60;96.20
52397;DHT22;38322;53.108;6.308;2022-07-29T19:51:34;20.60;96.40
52397;DHT22;38322;53.108;6.308;2022-07-29T19:54:00;20.50;96.60
52397;DHT22;38322;53.108;6.308;2022-07-29T19:56:28;20.50;96.80
52397;DHT22;38322;53.108;6.308;2022-07-29T19:58:56;20.50;96.90
